Time;durP1;ratioP1;P1;durP2;ratioP2;P2;SDS_P1;SDS_P2;PMS_P1;PMS_P2;Temp;Humidity;BMP_temperature;BMP_pressure;BME280_temperature;BME280_humidity;BME280_pressure;Samples;Min_cycle;Max_cycle;Signal;HPM_P1;HPM_P2
2023/10/25 00:00:37;;;;;;;11.90;4.30;;;;;;;;;;5053213;28;20263;-70
2023/10/25 00:03:03;;;;;;;11.48;4.38;;;;;;;;;;5053317;28;20025;-70
2023/10/25 00:05:32;;;;;;;10.02;4.57;;;;;;;;;;5053261;28;20013;-70
2023/10/25 00:07:57;;;;;;;9.70;4.50;;;;;;;;;;5053339;28;20021;-71
2023/10/25 00:10:23;;;;;;;9.80;4.47;;;;;;;;;;5053139;28;20020;-70
2023/10/25 00:12:48;;;;;;;11.33;4.77;;;;;;;;;;5053011;28;20301;-70
2023/10/25 00:15:13;;;;;;;13.57;5.03;;;;;;;;;;5053193;28;20282;-70
2023/10/25 00:17:38;;;;;;;13.73;5.10;;;;;;;;;;5053133;28;20270;-70
2023/10/25 00:20:04;;;;;;;12.33;5.23;;;;;;;;;;5053185;28;20255;-70
2023/10/25 00:22:29;;;;;;;9.32;5.07;;;;;;;;;;5035249;28;20263;-71
2023/10/25 00:24:54;;;;;;;14.67;5.20;;;;;;;;;;5053350;28;20104;-70
2023/10/25 00:27:19;;;;;;;16.97;5.27;;;;;;;;;;5053312;28;20263;-71
2023/10/25 00:29:44;;;;;;;18.63;5.60;;;;;;;;;;5053429;28;20270;-71
2023/10/25 00:32:14;;;;;;;14.37;6.03;;;;;;;;;;5053708;28;20837;-71
2023/10/25 00:34:39;;;;;;;20.13;6.38;;;;;;;;;;5056647;28;20271;-71
2023/10/25 00:37:04;;;;;;;13.55;5.90;;;;;;;;;;5069387;28;20016;-71
2023/10/25 00:39:30;;;;;;;14.73;6.60;;;;;;;;;;5069298;28;20025;-71
2023/10/25 00:41:55;;;;;;;14.50;5.97;;;;;;;;;;5073130;28;20267;-71
2023/10/25 00:44:20;;;;;;;12.65;6.20;;;;;;;;;;5076163;28;20274;-71
2023/10/25 00:46:47;;;;;;;15.97;6.43;;;;;;;;;;5076110;28;20033;-71
2023/10/25 00:49:12;;;;;;;16.90;6.95;;;;;;;;;;5076404;28;20263;-70
2023/10/25 00:51:37;;;;;;;12.65;6.55;;;;;;;;;;5077197;28;20052;-71
2023/10/25 00:54:03;;;;;;;16.35;6.68;;;;;;;;;;5079136;28;20029;-70
2023/10/25 00:56:30;;;;;;;15.02;6.68;;;;;;;;;;5080854;28;20032;-71
2023/10/25 00:58:56;;;;;;;17.48;6.90;;;;;;;;;;5081338;28;20032;-70
2023/10/25 01:01:25;;;;;;;15.10;6.72;;;;;;;;;;5081783;28;20029;-71
2023/10/25 01:03:51;;;;;;;16.23;6.68;;;;;;;;;;5081646;28;20046;-71
2023/10/25 01:06:17;;;;;;;16.80;6.78;;;;;;;;;;5065531;28;20025;-71
2023/10/25 01:08:42;;;;;;;15.13;6.47;;;;;;;;;;5062754;28;20027;-71
2023/10/25 01:11:07;;;;;;;18.58;7.00;;;;;;;;;;5043512;28;20039;-71
2023/10/25 01:13:33;;;;;;;14.98;6.47;;;;;;;;;;5061072;28;20037;-71
2023/10/25 01:15:58;;;;;;;14.98;6.32;;;;;;;;;;5060709;28;20020;-71
2023/10/25 01:18:23;;;;;;;13.13;6.55;;;;;;;;;;5061151;28;20017;-71
2023/10/25 01:20:48;;;;;;;10.77;6.35;;;;;;;;;;5060781;28;20032;-71
2023/10/25 01:23:14;;;;;;;19.73;6.13;;;;;;;;;;5061708;28;20078;-71
2023/10/25 01:25:40;;;;;;;12.05;7.10;;;;;;;;;;5062044;28;20053;-71
2023/10/25 01:28:06;;;;;;;17.25;6.53;;;;;;;;;;5061503;28;20036;-71
2023/10/25 01:30:31;;;;;;;12.93;6.28;;;;;;;;;;5043198;28;20017;-71
2023/10/25 01:32:58;;;;;;;15.75;6.15;;;;;;;;;;5061076;28;20159;-71
2023/10/25 01:35:23;;;;;;;14.20;5.88;;;;;;;;;;5060609;28;20016;-72
2023/10/25 01:37:49;;;;;;;15.55;5.68;;;;;;;;;;5060333;28;20017;-71
2023/10/25 01:40:14;;;;;;;12.75;6.07;;;;;;;;;;5060723;28;20020;-71
2023/10/25 01:42:39;;;;;;;15.90;6.22;;;;;;;;;;5059639;28;20021;-71
2023/10/25 01:45:05;;;;;;;12.07;6.77;;;;;;;;;;5059137;28;20107;-71
2023/10/25 01:47:30;;;;;;;14.23;6.13;;;;;;;;;;5057162;28;20270;-71
2023/10/25 01:49:55;;;;;;;17.67;6.00;;;;;;;;;;5056496;28;20478;-71
2023/10/25 01:52:21;;;;;;;14.50;6.18;;;;;;;;;;5055132;28;20021;-71
2023/10/25 01:54:50;;;;;;;13.98;6.07;;;;;;;;;;5056273;28;20050;-71
2023/10/25 01:57:15;;;;;;;15.80;6.00;;;;;;;;;;5055939;28;20017;-70
2023/10/25 01:59:40;;;;;;;11.30;5.95;;;;;;;;;;5055655;28;20013;-71
2023/10/25 02:02:06;;;;;;;13.70;6.15;;;;;;;;;;5038015;28;20020;-71
2023/10/25 02:04:31;;;;;;;12.10;6.27;;;;;;;;;;5055771;28;20013;-72
2023/10/25 02:06:56;;;;;;;12.00;6.40;;;;;;;;;;5055482;28;20278;-71
2023/10/25 02:09:22;;;;;;;15.02;6.53;;;;;;;;;;5055511;28;20430;-71
2023/10/25 02:11:47;;;;;;;16.92;6.88;;;;;;;;;;5055219;28;20081;-71
2023/10/25 02:14:12;;;;;;;15.77;6.95;;;;;;;;;;5055716;28;20024;-71
2023/10/25 02:16:37;;;;;;;15.35;7.00;;;;;;;;;;5055390;28;20017;-71
2023/10/25 02:19:02;;;;;;;17.63;6.67;;;;;;;;;;5055467;28;20029;-71
2023/10/25 02:21:28;;;;;;;15.93;7.07;;;;;;;;;;5055234;28;20753;-71
2023/10/25 02:23:53;;;;;;;17.13;7.00;;;;;;;;;;5055163;28;20514;-68
2023/10/25 02:26:18;;;;;;;19.33;6.75;;;;;;;;;;5055283;28;20266;-70
2023/10/25 02:28:44;;;;;;;15.45;6.38;;;;;;;;;;5055058;28;20021;-70
2023/10/25 02:31:09;;;;;;;13.87;6.83;;;;;;;;;;5054930;28;20036;-70
2023/10/25 02:33:34;;;;;;;12.80;6.65;;;;;;;;;;5055034;28;20738;-69
2023/10/25 02:35:59;;;;;;;17.20;6.43;;;;;;;;;;5055011;28;20484;-70
2023/10/25 02:38:24;;;;;;;17.27;7.67;;;;;;;;;;5036993;28;20326;-70
2023/10/25 02:40:49;;;;;;;12.20;6.83;;;;;;;;;;5055058;28;20810;-70
2023/10/25 02:43:15;;;;;;;17.03;6.53;;;;;;;;;;5053488;28;20313;-70
2023/10/25 02:45:40;;;;;;;13.50;6.73;;;;;;;;;;5054701;28;20287;-70
2023/10/25 02:48:11;;;;;;;12.83;6.43;;;;;;;;;;5036908;28;20255;-70
2023/10/25 02:50:36;;;;;;;16.50;6.65;;;;;;;;;;5054467;28;20259;-71
2023/10/25 02:53:02;;;;;;;11.80;6.43;;;;;;;;;;5054435;28;20021;-71
2023/10/25 02:55:27;;;;;;;11.50;6.40;;;;;;;;;;5054453;28;20020;-71
2023/10/25 02:57:52;;;;;;;13.25;7.15;;;;;;;;;;5054570;28;20302;-71
2023/10/25 03:00:18;;;;;;;12.30;6.77;;;;;;;;;;5054410;28;20109;-71
2023/10/25 03:02:43;;;;;;;12.93;6.43;;;;;;;;;;5054402;28;20259;-71
2023/10/25 03:05:08;;;;;;;10.95;6.30;;;;;;;;;;5054188;28;20029;-71
2023/10/25 03:07:33;;;;;;;16.83;6.80;;;;;;;;;;5054261;28;20086;-71
2023/10/25 03:09:59;;;;;;;16.23;6.90;;;;;;;;;;5054249;28;20259;-71
2023/10/25 03:12:24;;;;;;;16.67;5.87;;;;;;;;;;5053976;28;20296;-71
2023/10/25 03:14:49;;;;;;;21.20;7.00;;;;;;;;;;5036379;28;20699;-71
2023/10/25 03:17:15;;;;;;;12.23;5.78;;;;;;;;;;5054317;28;20367;-71
2023/10/25 03:19:40;;;;;;;10.10;5.83;;;;;;;;;;5054029;28;20091;-69
2023/10/25 03:22:06;;;;;;;14.67;6.40;;;;;;;;;;5054114;28;20762;-70
2023/10/25 03:24:31;;;;;;;12.40;6.57;;;;;;;;;;5054103;28;20287;-70
2023/10/25 03:26:57;;;;;;;13.30;5.65;;;;;;;;;;5053796;28;20013;-69
2023/10/25 03:29:22;;;;;;;12.57;5.70;;;;;;;;;;5053825;28;20024;-70
2023/10/25 03:31:47;;;;;;;11.73;6.07;;;;;;;;;;5053708;28;20646;-70
2023/10/25 03:34:14;;;;;;;14.80;6.07;;;;;;;;;;5054024;28;20263;-70
2023/10/25 03:36:39;;;;;;;10.63;5.60;;;;;;;;;;5035970;28;20468;-70
2023/10/25 03:39:05;;;;;;;14.80;6.03;;;;;;;;;;5053732;28;20092;-70
2023/10/25 03:41:30;;;;;;;13.20;6.15;;;;;;;;;;5053721;28;20392;-70
2023/10/25 03:43:55;;;;;;;12.93;5.77;;;;;;;;;;5035696;28;20025;-70
2023/10/25 03:46:20;;;;;;;7.93;5.50;;;;;;;;;;5053540;28;20346;-70
2023/10/25 03:48:45;;;;;;;10.07;5.30;;;;;;;;;;5053632;28;20439;-70
2023/10/25 03:51:11;;;;;;;11.52;6.05;;;;;;;;;;5053566;28;20286;-69
2023/10/25 03:53:36;;;;;;;14.55;7.00;;;;;;;;;;5035720;28;20468;-70
2023/10/25 03:56:02;;;;;;;9.48;5.20;;;;;;;;;;5053708;28;20028;-70
2023/10/25 03:58:27;;;;;;;10.98;5.07;;;;;;;;;;5053478;28;20016;-70
2023/10/25 04:01:03;;;;;;;13.02;5.47;;;;;;;;;;5053426;28;20096;-70
2023/10/25 04:03:28;;;;;;;9.35;5.47;;;;;;;;;;5053415;28;20464;-70
2023/10/25 04:05:53;;;;;;;13.60;5.47;;;;;;;;;;5053380;28;20071;-70
2023/10/25 04:08:19;;;;;;;12.88;5.10;;;;;;;;;;5053307;28;20017;-70
2023/10/25 04:10:51;;;;;;;14.85;5.40;;;;;;;;;;5035404;28;20527;-70
2023/10/25 04:13:16;;;;;;;12.65;5.82;;;;;;;;;;5053320;28;20041;-70
2023/10/25 04:15:41;;;;;;;10.70;6.03;;;;;;;;;;5052326;28;20482;-70
2023/10/25 04:18:09;;;;;;;13.93;5.73;;;;;;;;;;5053252;28;20059;-70
2023/10/25 04:20:34;;;;;;;9.82;5.38;;;;;;;;;;5053087;28;20317;-70
2023/10/25 04:22:59;;;;;;;10.82;5.47;;;;;;;;;;5053285;28;20025;-70
2023/10/25 04:25:24;;;;;;;10.37;5.10;;;;;;;;;;5053110;28;20380;-70
2023/10/25 04:27:50;;;;;;;14.90;5.60;;;;;;;;;;5053201;28;20354;-70
2023/10/25 04:30:15;;;;;;;7.95;5.05;;;;;;;;;;5053206;28;20778;-70
2023/10/25 04:32:40;;;;;;;13.40;5.32;;;;;;;;;;5053068;28;20433;-70
2023/10/25 04:35:05;;;;;;;14.00;5.40;;;;;;;;;;5052908;28;20028;-70
2023/10/25 04:37:30;;;;;;;17.17;5.13;;;;;;;;;;5052846;28;20017;-70
2023/10/25 04:39:56;;;;;;;11.40;5.63;;;;;;;;;;5053357;28;20005;-72
2023/10/25 04:42:21;;;;;;;9.57;4.87;;;;;;;;;;5052863;28;20264;-72
2023/10/25 04:44:46;;;;;;;10.30;5.35;;;;;;;;;;5053031;28;20281;-70
2023/10/25 04:47:13;;;;;;;11.30;5.80;;;;;;;;;;5053204;28;20439;-70
2023/10/25 04:49:38;;;;;;;10.35;5.32;;;;;;;;;;5052983;28;20264;-70
2023/10/25 04:52:04;;;;;;;10.48;5.78;;;;;;;;;;5052723;28;20021;-70
2023/10/25 04:54:29;;;;;;;12.25;5.38;;;;;;;;;;5035387;28;20473;-71
2023/10/25 04:56:55;;;;;;;11.47;5.27;;;;;;;;;;5034884;28;20400;-71
2023/10/25 04:59:20;;;;;;;9.57;5.18;;;;;;;;;;5034983;28;20320;-70
2023/10/25 05:01:45;;;;;;;12.63;4.85;;;;;;;;;;5052672;28;20100;-71
2023/10/25 05:04:10;;;;;;;16.67;5.47;;;;;;;;;;5053089;28;20129;-71
2023/10/25 05:06:35;;;;;;;10.37;4.60;;;;;;;;;;5052846;28;20270;-70
2023/10/25 05:09:01;;;;;;;10.50;4.90;;;;;;;;;;5052606;28;20295;-70
2023/10/25 05:11:29;;;;;;;11.75;4.35;;;;;;;;;;5052503;28;20021;-71
2023/10/25 05:13:54;;;;;;;18.92;4.57;;;;;;;;;;5052406;28;20037;-70
2023/10/25 05:16:19;;;;;;;12.77;4.93;;;;;;;;;;5052620;28;20546;-71
2023/10/25 05:18:45;;;;;;;14.90;4.75;;;;;;;;;;5052621;28;20025;-70
2023/10/25 05:21:14;;;;;;;12.10;5.10;;;;;;;;;;5052726;28;20100;-70
2023/10/25 05:23:39;;;;;;;15.68;4.88;;;;;;;;;;5052552;28;20472;-71
2023/10/25 05:26:04;;;;;;;10.43;4.50;;;;;;;;;;5034701;28;20025;-70
2023/10/25 05:28:30;;;;;;;15.65;4.85;;;;;;;;;;5056032;28;20472;-70
2023/10/25 05:30:57;;;;;;;9.95;4.30;;;;;;;;;;5056186;28;20046;-71
2023/10/25 05:33:23;;;;;;;7.35;4.10;;;;;;;;;;5056188;28;20020;-72
2023/10/25 05:35:48;;;;;;;11.23;4.72;;;;;;;;;;5056116;28;20020;-70
2023/10/25 05:38:13;;;;;;;11.75;4.53;;;;;;;;;;5055986;28;20147;-71
2023/10/25 05:40:40;;;;;;;9.90;4.53;;;;;;;;;;5055914;28;20021;-70
2023/10/25 05:43:06;;;;;;;14.13;4.60;;;;;;;;;;5055975;28;20025;-70
2023/10/25 05:45:31;;;;;;;15.55;5.07;;;;;;;;;;5055819;28;20020;-70
2023/10/25 05:47:57;;;;;;;15.13;4.70;;;;;;;;;;5056204;28;20021;-70
2023/10/25 05:50:22;;;;;;;15.40;5.00;;;;;;;;;;5056104;28;20267;-70
2023/10/25 05:52:47;;;;;;;9.55;4.95;;;;;;;;;;5055776;28;20040;-70
2023/10/25 05:55:14;;;;;;;13.15;4.72;;;;;;;;;;5056395;28;20025;-71
2023/10/25 05:57:39;;;;;;;9.13;4.55;;;;;;;;;;5055845;28;20066;-70
2023/10/25 06:00:05;;;;;;;10.98;5.10;;;;;;;;;;5055673;28;20021;-70
2023/10/25 06:02:31;;;;;;;12.55;5.00;;;;;;;;;;5055648;28;20063;-69
2023/10/25 06:04:59;;;;;;;9.50;4.97;;;;;;;;;;5056086;28;20071;-69
2023/10/25 06:07:24;;;;;;;12.73;5.03;;;;;;;;;;5055680;28;20021;-70
2023/10/25 06:09:50;;;;;;;9.63;4.97;;;;;;;;;;5055735;28;20048;-70
2023/10/25 06:12:15;;;;;;;12.13;5.20;;;;;;;;;;5055308;28;20163;-70
2023/10/25 06:14:42;;;;;;;9.93;4.90;;;;;;;;;;5055436;28;20016;-70
2023/10/25 06:17:07;;;;;;;12.70;5.20;;;;;;;;;;5037576;28;20013;-70
2023/10/25 06:19:32;;;;;;;11.90;5.50;;;;;;;;;;5059100;28;20379;-70
2023/10/25 06:21:57;;;;;;;11.20;5.00;;;;;;;;;;5046796;28;20271;-70
2023/10/25 06:24:22;;;;;;;13.83;5.30;;;;;;;;;;5059755;28;20291;-70
2023/10/25 06:26:47;;;;;;;9.07;4.87;;;;;;;;;;5056213;28;20275;-70
2023/10/25 06:29:13;;;;;;;13.10;4.90;;;;;;;;;;5055709;28;20275;-70
2023/10/25 06:31:38;;;;;;;7.75;4.55;;;;;;;;;;5056021;28;20013;-70
2023/10/25 06:34:03;;;;;;;12.93;4.73;;;;;;;;;;5055529;28;20048;-71
2023/10/25 06:36:30;;;;;;;12.00;4.55;;;;;;;;;;5055505;28;20259;-71
2023/10/25 06:38:56;;;;;;;14.27;4.47;;;;;;;;;;5054389;28;20017;-70
2023/10/25 06:41:24;;;;;;;11.77;4.50;;;;;;;;;;5055015;28;20379;-70
2023/10/25 06:43:50;;;;;;;15.75;5.07;;;;;;;;;;5055458;28;20027;-70
2023/10/25 06:46:15;;;;;;;7.45;4.40;;;;;;;;;;5054853;28;20447;-71
2023/10/25 06:48:41;;;;;;;10.23;4.88;;;;;;;;;;5037029;28;20029;-70
2023/10/25 06:51:08;;;;;;;12.35;4.45;;;;;;;;;;5054736;28;20020;-70
2023/10/25 06:53:35;;;;;;;11.32;4.65;;;;;;;;;;5054662;28;20013;-71
2023/10/25 06:56:01;;;;;;;13.57;4.70;;;;;;;;;;5054492;28;20464;-71
2023/10/25 06:58:26;;;;;;;13.73;4.78;;;;;;;;;;5054508;28;20066;-71
2023/10/25 07:00:53;;;;;;;11.50;4.85;;;;;;;;;;5054262;28;20016;-71
2023/10/25 07:03:19;;;;;;;9.13;4.30;;;;;;;;;;5035584;28;20392;-70
2023/10/25 07:05:45;;;;;;;10.75;4.72;;;;;;;;;;5052698;28;20423;-70
2023/10/25 07:08:10;;;;;;;11.70;4.30;;;;;;;;;;5034663;28;20029;-70
2023/10/25 07:10:36;;;;;;;14.25;4.80;;;;;;;;;;5052537;28;20013;-71
2023/10/25 07:13:01;;;;;;;12.10;4.80;;;;;;;;;;5052086;28;20044;-70
2023/10/25 07:15:26;;;;;;;13.70;4.70;;;;;;;;;;5052385;28;20051;-70
2023/10/25 07:17:51;;;;;;;9.52;4.22;;;;;;;;;;5052127;28;20383;-69
2023/10/25 07:20:16;;;;;;;11.13;4.47;;;;;;;;;;5052139;28;20021;-71
2023/10/25 07:22:42;;;;;;;10.17;4.47;;;;;;;;;;5052084;28;20747;-70
2023/10/25 07:25:08;;;;;;;22.23;5.17;;;;;;;;;;5053998;28;20255;-71
2023/10/25 07:27:33;;;;;;;10.10;4.75;;;;;;;;;;5053994;28;20619;-71
2023/10/25 07:29:58;;;;;;;13.15;4.68;;;;;;;;;;5053981;28;20491;-71
2023/10/25 07:32:24;;;;;;;10.02;4.47;;;;;;;;;;5054102;28;20013;-71
2023/10/25 07:34:49;;;;;;;6.97;4.32;;;;;;;;;;5053694;28;20017;-71
2023/10/25 07:37:15;;;;;;;9.13;4.80;;;;;;;;;;5053813;28;20017;-71
2023/10/25 07:39:40;;;;;;;9.25;4.50;;;;;;;;;;5053883;28;20020;-71
2023/10/25 07:42:05;;;;;;;7.85;4.15;;;;;;;;;;5053976;28;20472;-71
2023/10/25 07:44:31;;;;;;;14.60;4.38;;;;;;;;;;5053861;28;20092;-71
2023/10/25 07:46:56;;;;;;;13.93;4.47;;;;;;;;;;5053732;28;20017;-71
2023/10/25 07:49:21;;;;;;;11.00;4.07;;;;;;;;;;5053517;28;20021;-71
2023/10/25 07:51:46;;;;;;;10.60;4.23;;;;;;;;;;5053633;28;20283;-71
2023/10/25 07:54:11;;;;;;;12.37;4.20;;;;;;;;;;5036608;28;20260;-71
2023/10/25 07:56:37;;;;;;;6.77;4.10;;;;;;;;;;5053459;28;20317;-70
2023/10/25 07:59:02;;;;;;;8.95;3.95;;;;;;;;;;5053696;28;20263;-71
2023/10/25 08:01:27;;;;;;;14.30;3.75;;;;;;;;;;5053297;28;20025;-71
2023/10/25 08:03:53;;;;;;;9.15;3.55;;;;;;;;;;5053430;28;20059;-71
2023/10/25 08:06:18;;;;;;;11.82;4.25;;;;;;;;;;5053295;28;20017;-71
2023/10/25 08:08:43;;;;;;;10.77;4.00;;;;;;;;;;5053442;28;20025;-71
2023/10/25 08:11:08;;;;;;;10.07;4.03;;;;;;;;;;5053211;28;20317;-71
2023/10/25 08:13:34;;;;;;;8.02;4.28;;;;;;;;;;5052985;28;20291;-70
2023/10/25 08:16:00;;;;;;;9.80;4.20;;;;;;;;;;5053035;28;20028;-70
2023/10/25 08:18:28;;;;;;;14.65;4.03;;;;;;;;;;5053220;28;20017;-71
2023/10/25 08:20:54;;;;;;;7.97;3.97;;;;;;;;;;5053159;28;20021;-70
2023/10/25 08:23:19;;;;;;;11.48;4.00;;;;;;;;;;5053089;28;20028;-70
2023/10/25 08:25:44;;;;;;;10.10;4.20;;;;;;;;;;5053125;28;20017;-70
2023/10/25 08:28:09;;;;;;;8.73;4.20;;;;;;;;;;5052882;28;20036;-69
2023/10/25 08:30:35;;;;;;;9.03;4.70;;;;;;;;;;5053019;28;20017;-70
2023/10/25 08:33:00;;;;;;;8.80;4.40;;;;;;;;;;5035061;28;20299;-70
2023/10/25 08:35:26;;;;;;;13.23;4.20;;;;;;;;;;5053094;28;20659;-70
2023/10/25 08:37:51;;;;;;;11.18;4.63;;;;;;;;;;5035063;28;20116;-71
2023/10/25 08:40:16;;;;;;;10.97;4.73;;;;;;;;;;5053055;28;20104;-70
2023/10/25 08:42:41;;;;;;;11.35;4.63;;;;;;;;;;5053075;28;20735;-70
2023/10/25 08:45:07;;;;;;;10.68;4.78;;;;;;;;;;5052887;28;20020;-70
2023/10/25 08:47:35;;;;;;;11.95;5.18;;;;;;;;;;5034999;28;20021;-70
2023/10/25 08:50:00;;;;;;;8.45;4.60;;;;;;;;;;5052826;28;20014;-71
2023/10/25 08:52:25;;;;;;;9.13;4.50;;;;;;;;;;5052799;28;20025;-71
2023/10/25 08:54:51;;;;;;;14.27;5.05;;;;;;;;;;5052955;28;20357;-71
2023/10/25 08:57:19;;;;;;;9.65;4.57;;;;;;;;;;5052739;28;20021;-71
2023/10/25 08:59:46;;;;;;;9.43;4.55;;;;;;;;;;5034794;28;20082;-71
2023/10/25 09:02:12;;;;;;;6.65;4.28;;;;;;;;;;5053906;28;20028;-70
2023/10/25 09:04:57;;;;;;;8.65;4.63;;;;;;;;;;5038918;28;20025;-71
2023/10/25 09:07:27;;;;;;;13.88;5.43;;;;;;;;;;5056009;28;20100;-70
2023/10/25 09:09:52;;;;;;;15.77;4.95;;;;;;;;;;5056632;28;20433;-70
2023/10/25 09:12:20;;;;;;;12.90;5.07;;;;;;;;;;5056356;28;20120;-71
2023/10/25 09:14:47;;;;;;;8.82;4.32;;;;;;;;;;5056339;28;20710;-71
2023/10/25 09:17:12;;;;;;;11.50;4.28;;;;;;;;;;5038377;28;20025;-71
2023/10/25 09:19:37;;;;;;;9.90;4.40;;;;;;;;;;5056632;28;20017;-71
2023/10/25 09:22:21;;;;;;;15.33;4.70;;;;;;;;;;5056445;28;20271;-73
2023/10/25 09:24:47;;;;;;;8.63;4.05;;;;;;;;;;5056194;28;20263;-70
2023/10/25 09:27:12;;;;;;;9.77;4.18;;;;;;;;;;5056367;28;20029;-70
2023/10/25 09:29:38;;;;;;;10.97;4.13;;;;;;;;;;5056175;28;20025;-70
2023/10/25 09:32:07;;;;;;;9.20;4.57;;;;;;;;;;5056032;28;20361;-71
2023/10/25 09:34:32;;;;;;;11.45;4.22;;;;;;;;;;5056066;28;20024;-71
2023/10/25 09:36:59;;;;;;;12.95;4.30;;;;;;;;;;5056082;28;20017;-70
2023/10/25 09:39:24;;;;;;;13.73;4.63;;;;;;;;;;5055984;28;20464;-70
2023/10/25 09:41:52;;;;;;;11.23;4.27;;;;;;;;;;5056026;28;20021;-72
2023/10/25 09:44:19;;;;;;;10.27;4.20;;;;;;;;;;5055790;28;20263;-70
2023/10/25 09:46:45;;;;;;;9.82;4.32;;;;;;;;;;5056019;28;20020;-70
2023/10/25 09:49:14;;;;;;;9.98;4.03;;;;;;;;;;5056077;28;20029;-71
2023/10/25 09:51:46;;;;;;;9.63;4.25;;;;;;;;;;5055778;28;20020;-70
2023/10/25 09:54:12;;;;;;;12.45;4.55;;;;;;;;;;5055596;28;20025;-71
2023/10/25 09:56:37;;;;;;;16.02;4.38;;;;;;;;;;5055563;28;20100;-71
2023/10/25 09:59:03;;;;;;;10.57;4.60;;;;;;;;;;5055764;28;20040;-71
2023/10/25 10:01:29;;;;;;;8.02;4.20;;;;;;;;;;5055572;28;20021;-70
2023/10/25 10:04:12;;;;;;;11.40;4.65;;;;;;;;;;5055571;28;20027;-70
2023/10/25 10:06:39;;;;;;;6.82;4.28;;;;;;;;;;5055380;28;20096;-70
2023/10/25 10:09:12;;;;;;;10.57;4.63;;;;;;;;;;5055317;28;20444;-70
2023/10/25 10:11:39;;;;;;;12.50;4.82;;;;;;;;;;5055337;28;20465;-71
2023/10/25 10:14:23;;;;;;;12.20;4.65;;;;;;;;;;5036277;28;20028;-71
2023/10/25 10:16:48;;;;;;;12.88;5.00;;;;;;;;;;5055137;28;20025;-71
2023/10/25 10:19:13;;;;;;;12.63;4.83;;;;;;;;;;5055333;28;20021;-70
2023/10/25 10:21:57;;;;;;;12.73;4.93;;;;;;;;;;5055128;28;20263;-71
2023/10/25 10:24:37;;;;;;;8.80;4.68;;;;;;;;;;5056500;28;20029;-70
2023/10/25 10:27:02;;;;;;;14.73;4.80;;;;;;;;;;5055155;28;20032;-70
2023/10/25 10:29:31;;;;;;;12.23;5.20;;;;;;;;;;5055220;28;20025;-70
2023/10/25 10:31:56;;;;;;;13.65;5.47;;;;;;;;;;5055100;28;20287;-71
2023/10/25 10:34:42;;;;;;;13.43;5.25;;;;;;;;;;5054887;28;20384;-70
2023/10/25 10:37:08;;;;;;;8.15;4.90;;;;;;;;;;5054360;28;20040;-71
2023/10/25 10:39:33;;;;;;;12.02;5.40;;;;;;;;;;5054895;28;20013;-70
2023/10/25 10:42:01;;;;;;;9.82;5.38;;;;;;;;;;5054767;28;20021;-70
2023/10/25 10:44:26;;;;;;;12.73;4.80;;;;;;;;;;5055207;28;20041;-70
2023/10/25 10:46:55;;;;;;;9.20;4.38;;;;;;;;;;5036752;28;20114;-71
2023/10/25 10:49:22;;;;;;;10.15;4.78;;;;;;;;;;5036915;28;20025;-71
2023/10/25 10:51:47;;;;;;;10.38;4.68;;;;;;;;;;5054527;28;20431;-71
2023/10/25 10:54:12;;;;;;;10.55;4.35;;;;;;;;;;5054903;28;20020;-71
2023/10/25 10:56:38;;;;;;;9.63;5.00;;;;;;;;;;5056862;28;20039;-71
2023/10/25 10:59:03;;;;;;;10.02;5.07;;;;;;;;;;5055049;28;20075;-71
2023/10/25 11:01:29;;;;;;;9.93;4.65;;;;;;;;;;5058847;28;20021;-71
2023/10/25 11:03:56;;;;;;;21.98;5.50;;;;;;;;;;5055572;28;20025;-71
2023/10/25 11:06:24;;;;;;;7.45;4.70;;;;;;;;;;5054970;28;20028;-71
2023/10/25 11:08:49;;;;;;;12.13;4.80;;;;;;;;;;5055767;28;20034;-70
2023/10/25 11:11:14;;;;;;;12.07;5.00;;;;;;;;;;5036937;28;20029;-71
2023/10/25 11:13:39;;;;;;;10.68;4.85;;;;;;;;;;5054199;28;20033;-69
2023/10/25 11:16:10;;;;;;;7.67;4.90;;;;;;;;;;5054480;28;20012;-70
2023/10/25 11:18:35;;;;;;;11.32;4.97;;;;;;;;;;5055188;28;20255;-70
2023/10/25 11:21:00;;;;;;;11.68;5.22;;;;;;;;;;5055484;28;20489;-71
2023/10/25 11:23:26;;;;;;;10.40;5.00;;;;;;;;;;5054879;28;20092;-70
2023/10/25 11:25:51;;;;;;;9.95;4.90;;;;;;;;;;5053906;28;20025;-70
2023/10/25 11:28:18;;;;;;;13.98;5.10;;;;;;;;;;5054026;28;20092;-70
2023/10/25 11:30:44;;;;;;;10.45;4.63;;;;;;;;;;5054047;28;20103;-69
2023/10/25 11:33:09;;;;;;;11.15;5.32;;;;;;;;;;5053707;28;20116;-70
2023/10/25 11:35:36;;;;;;;12.82;5.78;;;;;;;;;;5054000;28;20111;-70
2023/10/25 11:38:01;;;;;;;13.93;5.30;;;;;;;;;;5053677;28;20023;-70
2023/10/25 11:40:35;;;;;;;11.40;5.73;;;;;;;;;;5054198;28;20100;-71
2023/10/25 11:43:00;;;;;;;13.40;5.35;;;;;;;;;;5053618;28;20263;-70
2023/10/25 11:45:26;;;;;;;10.50;4.97;;;;;;;;;;5053514;28;20096;-70
2023/10/25 11:47:54;;;;;;;12.57;5.23;;;;;;;;;;5053551;28;20122;-71
2023/10/25 11:50:19;;;;;;;12.68;4.57;;;;;;;;;;5053939;28;20263;-71
2023/10/25 11:52:44;;;;;;;10.85;5.10;;;;;;;;;;5036850;28;20013;-71
2023/10/25 11:55:09;;;;;;;10.85;4.90;;;;;;;;;;5053274;28;20589;-71
2023/10/25 11:57:35;;;;;;;10.43;5.10;;;;;;;;;;5053284;28;20020;-69
2023/10/25 12:00:00;;;;;;;11.57;4.97;;;;;;;;;;5053433;28;20068;-69
2023/10/25 12:02:26;;;;;;;11.02;4.75;;;;;;;;;;5053336;28;20263;-70
2023/10/25 12:04:51;;;;;;;10.38;5.28;;;;;;;;;;5053552;28;20495;-71
2023/10/25 12:07:17;;;;;;;10.00;4.70;;;;;;;;;;5035981;28;20019;-70
2023/10/25 12:09:45;;;;;;;10.05;4.95;;;;;;;;;;5055034;28;20053;-70
2023/10/25 12:12:10;;;;;;;11.05;5.10;;;;;;;;;;5053351;28;20048;-69
2023/10/25 12:14:35;;;;;;;12.52;5.18;;;;;;;;;;5053278;28;20032;-70
2023/10/25 12:17:00;;;;;;;9.88;4.97;;;;;;;;;;5053363;28;20384;-70
2023/10/25 12:19:26;;;;;;;7.80;4.50;;;;;;;;;;5053256;28;20465;-69
2023/10/25 12:21:56;;;;;;;8.88;4.50;;;;;;;;;;5053201;28;20369;-71
2023/10/25 12:24:24;;;;;;;11.82;4.80;;;;;;;;;;5053226;28;20115;-69
2023/10/25 12:26:50;;;;;;;13.38;5.20;;;;;;;;;;5035238;28;20526;-70
2023/10/25 12:29:15;;;;;;;10.10;4.90;;;;;;;;;;5035384;28;20064;-72
2023/10/25 12:31:40;;;;;;;11.43;5.00;;;;;;;;;;5052926;28;20321;-71
2023/10/25 12:34:05;;;;;;;13.32;4.57;;;;;;;;;;5054248;28;20259;-71
2023/10/25 12:36:30;;;;;;;11.93;5.37;;;;;;;;;;5053285;28;20051;-71
2023/10/25 12:38:55;;;;;;;9.37;5.07;;;;;;;;;;5057028;28;20259;-70
2023/10/25 12:41:21;;;;;;;9.77;5.07;;;;;;;;;;5057005;28;20723;-71
2023/10/25 12:43:47;;;;;;;12.80;5.77;;;;;;;;;;5057040;28;20017;-70
2023/10/25 12:46:13;;;;;;;10.40;5.15;;;;;;;;;;5059190;28;20256;-70
2023/10/25 12:48:38;;;;;;;10.00;4.68;;;;;;;;;;5060825;28;20016;-70
2023/10/25 12:51:03;;;;;;;11.87;5.00;;;;;;;;;;5039270;28;20427;-70
2023/10/25 12:53:28;;;;;;;10.47;5.40;;;;;;;;;;5057071;28;20283;-70
2023/10/25 12:55:53;;;;;;;15.03;5.53;;;;;;;;;;5039043;28;20282;-71
2023/10/25 12:58:19;;;;;;;9.63;5.07;;;;;;;;;;5056880;28;20023;-70
2023/10/25 13:00:44;;;;;;;9.97;5.03;;;;;;;;;;5056840;28;20346;-71
2023/10/25 13:03:09;;;;;;;10.07;5.00;;;;;;;;;;5056710;28;20020;-71
2023/10/25 13:05:34;;;;;;;11.20;6.03;;;;;;;;;;5056646;28;20267;-69
2023/10/25 13:07:59;;;;;;;10.20;5.40;;;;;;;;;;5056517;28;20060;-71
2023/10/25 13:10:25;;;;;;;11.65;5.50;;;;;;;;;;5056701;28;20029;-70
2023/10/25 13:12:50;;;;;;;10.60;5.33;;;;;;;;;;5056275;28;20049;-70
2023/10/25 13:15:15;;;;;;;12.38;5.28;;;;;;;;;;5036767;28;20251;-71
2023/10/25 13:17:40;;;;;;;9.60;5.13;;;;;;;;;;5054588;28;20016;-71
2023/10/25 13:20:08;;;;;;;10.77;5.05;;;;;;;;;;5054580;28;20021;-71
2023/10/25 13:22:34;;;;;;;12.90;5.03;;;;;;;;;;5055420;28;20104;-71
2023/10/25 13:24:59;;;;;;;12.52;5.38;;;;;;;;;;5055587;28;20063;-71
2023/10/25 13:27:24;;;;;;;12.23;4.97;;;;;;;;;;5055616;28;20029;-70
2023/10/25 13:29:51;;;;;;;10.55;5.15;;;;;;;;;;5056042;28;20071;-70
2023/10/25 13:32:16;;;;;;;17.35;4.80;;;;;;;;;;5038348;28;20087;-70
2023/10/25 13:34:44;;;;;;;9.70;4.70;;;;;;;;;;5056306;28;20021;-71
2023/10/25 13:37:09;;;;;;;9.57;5.10;;;;;;;;;;5038064;28;20271;-71
2023/10/25 13:39:34;;;;;;;9.47;4.77;;;;;;;;;;5056043;28;20088;-71
2023/10/25 13:41:59;;;;;;;13.17;5.17;;;;;;;;;;5038105;28;20263;-70
2023/10/25 13:44:24;;;;;;;12.23;5.10;;;;;;;;;;5056046;28;20261;-71
2023/10/25 13:46:50;;;;;;;10.20;4.70;;;;;;;;;;5055071;28;20726;-71
2023/10/25 13:49:15;;;;;;;16.67;4.97;;;;;;;;;;5055598;28;20028;-70
2023/10/25 13:51:40;;;;;;;7.93;4.87;;;;;;;;;;5055793;28;20275;-71
2023/10/25 13:54:06;;;;;;;9.75;4.55;;;;;;;;;;5056006;28;20260;-70
2023/10/25 13:56:31;;;;;;;10.25;4.63;;;;;;;;;;5055414;28;20021;-69
2023/10/25 13:58:56;;;;;;;8.07;4.70;;;;;;;;;;5055731;28;20075;-70
2023/10/25 14:01:21;;;;;;;9.82;4.63;;;;;;;;;;5055799;28;20342;-71
2023/10/25 14:03:47;;;;;;;11.13;4.70;;;;;;;;;;5037838;28;20019;-71
2023/10/25 14:06:15;;;;;;;17.90;5.35;;;;;;;;;;5055547;28;20256;-71
2023/10/25 14:08:41;;;;;;;11.32;4.65;;;;;;;;;;5055504;28;20078;-71
2023/10/25 14:11:06;;;;;;;6.97;4.47;;;;;;;;;;5055580;28;20457;-71
2023/10/25 14:13:31;;;;;;;11.65;4.78;;;;;;;;;;5055128;28;20295;-71
2023/10/25 14:15:56;;;;;;;11.07;4.80;;;;;;;;;;5055249;28;20040;-71
2023/10/25 14:18:21;;;;;;;9.15;4.85;;;;;;;;;;5037673;28;20495;-72
2023/10/25 14:20:47;;;;;;;11.87;4.90;;;;;;;;;;5037664;28;20184;-71
2023/10/25 14:23:12;;;;;;;6.90;4.47;;;;;;;;;;5057080;28;20255;-72
2023/10/25 14:25:38;;;;;;;8.32;4.28;;;;;;;;;;5055117;28;20021;-72